KMOB/MOB METAR and TAF weather

Enter ICAO airport designator
Station Type Date Time Source
KMOB METAR 2019/02/17 07:56 UTC NOAA

KMOB 170756Z AUTO 16007KT 7SM OVC003 19/19 A2980 RMK AO2 SLP088 T01940189


Station Type Date Time Source
KMOB Decoded METAR 2019/02/17 07:56 UTC NOAA

MOBILE REGIONAL AIRPORT, AL, United States (KMOB) 30-41N 88-14W 67M
Feb 17, 2019 - 02:56 AM EST / 2019.02.17 0756 UTC
Wind: from the SSE (160 degrees) at 8 MPH (7 KT):0
Visibility: 7 mile(s):0
Sky conditions: overcast
Temperature: 66.9 F (19.4 C)
Dew Point: 66.0 F (18.9 C)
Relative Humidity: 96%
Pressure (altimeter): 29.8 in. Hg (1009 hPa)
ob: KMOB 170756Z AUTO 16007KT 7SM OVC003 19/19 A2980 RMK AO2 SLP088 T01940189
cycle: 8

Station Type Date Time Source
KMOB TAF 2019/02/17 06:33 UTC NOAA

TAF KMOB 170531Z 1706/1806 18005KT 4SM BR OVC004
FM170900 16006KT 2SM BR OVC004
FM171300 17009KT 4SM BR OVC008
FM171600 17008KT P6SM OVC015
FM172100 18012KT P6SM OVC030
FM180100 18010KT 5SM BR OVC009


Example: see airport list